Terminal Aerodrome Forecast
Issued by NWS

Home | Current Version | Previous Version | Text Only | Print | Product List | Glossary On
Versions: 1 2 3 4 5 6 7 8 9 10 11 12 13 14 15 16 17 18
000
FTUS43 KDVN 061407 AAA
TAFBRL
TAF AMD
KBRL 061407Z 0614/0712 20011KT 6SM HZ BKN050
     FM062100 21012KT P6SM SCT040
      TEMPO 0621/0624 3SM TSRA BR OVC035CB
     FM070000 23006KT 3SM TSRA BR OVC030CB
     FM070700 29010KT 5SM BR OVC025=

USA.gov is the U.S. government's official web portal to all federal, state and local government web resources and services.